sensor_id;sensor_type;location;lat;lon;timestamp;temperature;humidity
34829;DHT22;21042;47.620;12.188;2024-03-25T00:00:47;4.00;99.90
34829;DHT22;21042;47.620;12.188;2024-03-25T00:03:13;4.00;99.90
34829;DHT22;21042;47.620;12.188;2024-03-25T00:05:39;4.00;99.90
34829;DHT22;21042;47.620;12.188;2024-03-25T00:08:05;3.90;99.90
34829;DHT22;21042;47.620;12.188;2024-03-25T00:10:31;3.80;99.90
34829;DHT22;21042;47.620;12.188;2024-03-25T00:12:57;3.80;99.90
34829;DHT22;21042;47.620;12.188;2024-03-25T00:15:22;3.70;99.90
34829;DHT22;21042;47.620;12.188;2024-03-25T00:17:51;3.80;99.90
34829;DHT22;21042;47.620;12.188;2024-03-25T00:20:17;3.80;99.90
34829;DHT22;21042;47.620;12.188;2024-03-25T00:22:43;3.80;99.90
34829;DHT22;21042;47.620;12.188;2024-03-25T00:25:10;3.80;99.90
34829;DHT22;21042;47.620;12.188;2024-03-25T00:27:35;3.80;99.90
34829;DHT22;21042;47.620;12.188;2024-03-25T00:30:01;3.70;99.90
34829;DHT22;21042;47.620;12.188;2024-03-25T00:32:28;3.70;99.90
34829;DHT22;21042;47.620;12.188;2024-03-25T00:34:53;3.80;99.90
34829;DHT22;21042;47.620;12.188;2024-03-25T00:37:19;3.80;99.90
34829;DHT22;21042;47.620;12.188;2024-03-25T00:39:45;3.70;99.90
34829;DHT22;21042;47.620;12.188;2024-03-25T00:42:11;3.70;99.90
34829;DHT22;21042;47.620;12.188;2024-03-25T00:44:38;3.60;99.90
34829;DHT22;21042;47.620;12.188;2024-03-25T00:47:03;3.60;99.90
34829;DHT22;21042;47.620;12.188;2024-03-25T00:49:29;3.60;99.90
34829;DHT22;21042;47.620;12.188;2024-03-25T00:51:55;3.70;99.90
34829;DHT22;21042;47.620;12.188;2024-03-25T00:54:21;3.70;99.90
34829;DHT22;21042;47.620;12.188;2024-03-25T00:56:49;3.70;99.90
34829;DHT22;21042;47.620;12.188;2024-03-25T00:59:15;3.70;99.90
34829;DHT22;21042;47.620;12.188;2024-03-25T01:01:41;3.80;99.90
34829;DHT22;21042;47.620;12.188;2024-03-25T01:04:07;3.80;99.90
34829;DHT22;21042;47.620;12.188;2024-03-25T01:06:33;3.80;99.90
34829;DHT22;21042;47.620;12.188;2024-03-25T01:08:59;3.80;99.90
34829;DHT22;21042;47.620;12.188;2024-03-25T01:11:25;3.90;99.90
34829;DHT22;21042;47.620;12.188;2024-03-25T01:13:51;4.00;99.90
34829;DHT22;21042;47.620;12.188;2024-03-25T01:16:16;3.90;99.90
34829;DHT22;21042;47.620;12.188;2024-03-25T01:18:42;4.00;99.90
34829;DHT22;21042;47.620;12.188;2024-03-25T01:21:08;4.00;99.90
34829;DHT22;21042;47.620;12.188;2024-03-25T01:23:34;4.00;99.90
34829;DHT22;21042;47.620;12.188;2024-03-25T01:26:00;3.90;99.90
34829;DHT22;21042;47.620;12.188;2024-03-25T01:28:26;3.90;99.90
34829;DHT22;21042;47.620;12.188;2024-03-25T01:30:51;3.80;99.90
34829;DHT22;21042;47.620;12.188;2024-03-25T01:33:17;3.80;99.90
34829;DHT22;21042;47.620;12.188;2024-03-25T01:35:43;3.70;99.90
34829;DHT22;21042;47.620;12.188;2024-03-25T01:38:09;3.70;99.90
34829;DHT22;21042;47.620;12.188;2024-03-25T01:40:35;3.70;99.90
34829;DHT22;21042;47.620;12.188;2024-03-25T01:43:02;3.80;99.90
34829;DHT22;21042;47.620;12.188;2024-03-25T01:45:35;3.80;99.90
34829;DHT22;21042;47.620;12.188;2024-03-25T01:48:08;3.70;99.90
34829;DHT22;21042;47.620;12.188;2024-03-25T01:50:43;3.60;99.90
34829;DHT22;21042;47.620;12.188;2024-03-25T01:53:12;3.60;99.90
34829;DHT22;21042;47.620;12.188;2024-03-25T01:55:39;3.60;99.90
34829;DHT22;21042;47.620;12.188;2024-03-25T01:58:08;3.60;99.90
34829;DHT22;21042;47.620;12.188;2024-03-25T02:00:35;3.60;99.90
34829;DHT22;21042;47.620;12.188;2024-03-25T02:03:01;3.50;99.90
34829;DHT22;21042;47.620;12.188;2024-03-25T02:05:27;3.60;99.90
34829;DHT22;21042;47.620;12.188;2024-03-25T02:07:53;3.60;99.90
34829;DHT22;21042;47.620;12.188;2024-03-25T02:10:20;3.50;99.90
34829;DHT22;21042;47.620;12.188;2024-03-25T02:12:47;3.60;99.90
34829;DHT22;21042;47.620;12.188;2024-03-25T02:15:13;3.60;99.90
34829;DHT22;21042;47.620;12.188;2024-03-25T02:17:39;3.60;99.90
34829;DHT22;21042;47.620;12.188;2024-03-25T02:20:06;3.60;99.90
34829;DHT22;21042;47.620;12.188;2024-03-25T02:22:37;3.50;99.90
34829;DHT22;21042;47.620;12.188;2024-03-25T02:25:08;3.40;99.90
34829;DHT22;21042;47.620;12.188;2024-03-25T02:27:35;3.50;99.90
34829;DHT22;21042;47.620;12.188;2024-03-25T02:30:05;3.60;99.90
34829;DHT22;21042;47.620;12.188;2024-03-25T02:32:36;3.60;99.90
34829;DHT22;21042;47.620;12.188;2024-03-25T02:35:12;3.70;99.90
34829;DHT22;21042;47.620;12.188;2024-03-25T02:37:39;3.70;99.90
34829;DHT22;21042;47.620;12.188;2024-03-25T02:40:08;3.70;99.90
34829;DHT22;21042;47.620;12.188;2024-03-25T02:42:37;3.70;99.90
34829;DHT22;21042;47.620;12.188;2024-03-25T02:45:05;3.70;99.90
34829;DHT22;21042;47.620;12.188;2024-03-25T02:47:32;3.60;99.90
34829;DHT22;21042;47.620;12.188;2024-03-25T02:49:57;3.60;99.90
34829;DHT22;21042;47.620;12.188;2024-03-25T02:52:24;3.60;99.90
34829;DHT22;21042;47.620;12.188;2024-03-25T02:54:50;3.60;99.90
34829;DHT22;21042;47.620;12.188;2024-03-25T02:57:15;3.60;99.90
34829;DHT22;21042;47.620;12.188;2024-03-25T02:59:41;3.60;99.90
34829;DHT22;21042;47.620;12.188;2024-03-25T03:02:07;3.60;99.90
34829;DHT22;21042;47.620;12.188;2024-03-25T03:04:33;3.60;99.90
34829;DHT22;21042;47.620;12.188;2024-03-25T03:06:59;3.60;99.90
34829;DHT22;21042;47.620;12.188;2024-03-25T03:09:25;3.60;99.90
34829;DHT22;21042;47.620;12.188;2024-03-25T03:11:50;3.70;99.90
34829;DHT22;21042;47.620;12.188;2024-03-25T03:14:17;3.60;99.90
34829;DHT22;21042;47.620;12.188;2024-03-25T03:16:42;3.50;99.90
34829;DHT22;21042;47.620;12.188;2024-03-25T03:19:08;3.50;99.90
34829;DHT22;21042;47.620;12.188;2024-03-25T03:21:34;3.50;99.90
34829;DHT22;21042;47.620;12.188;2024-03-25T03:24:00;3.50;99.90
34829;DHT22;21042;47.620;12.188;2024-03-25T03:26:26;3.40;99.90
34829;DHT22;21042;47.620;12.188;2024-03-25T03:28:55;3.40;99.90
34829;DHT22;21042;47.620;12.188;2024-03-25T03:31:21;3.40;99.90
34829;DHT22;21042;47.620;12.188;2024-03-25T03:33:48;3.40;99.90
34829;DHT22;21042;47.620;12.188;2024-03-25T03:36:15;3.40;99.90
34829;DHT22;21042;47.620;12.188;2024-03-25T03:38:42;3.50;99.90
34829;DHT22;21042;47.620;12.188;2024-03-25T03:41:08;3.50;99.90
34829;DHT22;21042;47.620;12.188;2024-03-25T03:43:34;3.50;99.90
34829;DHT22;21042;47.620;12.188;2024-03-25T03:45:59;3.60;99.90
34829;DHT22;21042;47.620;12.188;2024-03-25T03:48:25;3.60;99.90
34829;DHT22;21042;47.620;12.188;2024-03-25T03:50:51;3.70;99.90
34829;DHT22;21042;47.620;12.188;2024-03-25T03:53:17;3.60;99.90
34829;DHT22;21042;47.620;12.188;2024-03-25T03:55:56;3.70;99.90
34829;DHT22;21042;47.620;12.188;2024-03-25T03:58:22;3.70;99.90
34829;DHT22;21042;47.620;12.188;2024-03-25T04:00:49;3.70;99.90
34829;DHT22;21042;47.620;12.188;2024-03-25T04:03:15;3.70;99.90
34829;DHT22;21042;47.620;12.188;2024-03-25T04:05:41;3.70;99.90
34829;DHT22;21042;47.620;12.188;2024-03-25T04:08:07;3.70;99.90
34829;DHT22;21042;47.620;12.188;2024-03-25T04:10:34;3.70;99.90
34829;DHT22;21042;47.620;12.188;2024-03-25T04:13:00;3.70;99.90
34829;DHT22;21042;47.620;12.188;2024-03-25T04:15:26;3.70;99.90
34829;DHT22;21042;47.620;12.188;2024-03-25T04:17:52;3.70;99.90
34829;DHT22;21042;47.620;12.188;2024-03-25T04:20:19;3.80;99.90
34829;DHT22;21042;47.620;12.188;2024-03-25T04:22:45;3.70;99.90
34829;DHT22;21042;47.620;12.188;2024-03-25T04:25:12;3.70;99.90
34829;DHT22;21042;47.620;12.188;2024-03-25T04:27:41;3.70;99.90
34829;DHT22;21042;47.620;12.188;2024-03-25T04:30:07;3.80;99.90
34829;DHT22;21042;47.620;12.188;2024-03-25T04:32:35;3.80;99.90
34829;DHT22;21042;47.620;12.188;2024-03-25T04:35:01;3.80;99.90
34829;DHT22;21042;47.620;12.188;2024-03-25T04:37:27;3.80;99.90
34829;DHT22;21042;47.620;12.188;2024-03-25T04:39:56;3.80;99.90
34829;DHT22;21042;47.620;12.188;2024-03-25T04:42:22;3.80;99.90
34829;DHT22;21042;47.620;12.188;2024-03-25T04:44:49;3.80;99.90
34829;DHT22;21042;47.620;12.188;2024-03-25T04:47:16;3.80;99.90
34829;DHT22;21042;47.620;12.188;2024-03-25T04:49:43;3.80;99.90
34829;DHT22;21042;47.620;12.188;2024-03-25T04:52:09;3.80;99.90
34829;DHT22;21042;47.620;12.188;2024-03-25T04:54:35;3.80;99.90
34829;DHT22;21042;47.620;12.188;2024-03-25T04:57:01;3.80;99.90
34829;DHT22;21042;47.620;12.188;2024-03-25T04:59:28;3.80;99.90
34829;DHT22;21042;47.620;12.188;2024-03-25T05:01:53;3.80;99.90
34829;DHT22;21042;47.620;12.188;2024-03-25T05:04:19;3.80;99.90
34829;DHT22;21042;47.620;12.188;2024-03-25T05:06:46;3.80;99.90
34829;DHT22;21042;47.620;12.188;2024-03-25T05:09:11;3.80;99.90
34829;DHT22;21042;47.620;12.188;2024-03-25T05:11:37;3.80;99.90
34829;DHT22;21042;47.620;12.188;2024-03-25T05:14:03;3.80;99.90
34829;DHT22;21042;47.620;12.188;2024-03-25T05:16:29;3.80;99.90
34829;DHT22;21042;47.620;12.188;2024-03-25T05:18:55;3.80;99.90
34829;DHT22;21042;47.620;12.188;2024-03-25T05:21:21;3.80;99.90
34829;DHT22;21042;47.620;12.188;2024-03-25T05:23:46;3.80;99.90
34829;DHT22;21042;47.620;12.188;2024-03-25T05:26:12;3.90;99.90
34829;DHT22;21042;47.620;12.188;2024-03-25T05:28:38;3.80;99.90
34829;DHT22;21042;47.620;12.188;2024-03-25T05:31:08;3.80;99.90
34829;DHT22;21042;47.620;12.188;2024-03-25T05:33:34;3.90;99.90
34829;DHT22;21042;47.620;12.188;2024-03-25T05:36:00;3.90;99.90
34829;DHT22;21042;47.620;12.188;2024-03-25T05:38:28;3.90;99.90
34829;DHT22;21042;47.620;12.188;2024-03-25T05:40:54;3.90;99.90
34829;DHT22;21042;47.620;12.188;2024-03-25T05:43:20;3.90;99.90
34829;DHT22;21042;47.620;12.188;2024-03-25T05:45:56;3.90;99.90
34829;DHT22;21042;47.620;12.188;2024-03-25T05:48:25;3.90;99.90
34829;DHT22;21042;47.620;12.188;2024-03-25T05:51:00;4.00;99.90
34829;DHT22;21042;47.620;12.188;2024-03-25T05:53:27;4.00;99.90
34829;DHT22;21042;47.620;12.188;2024-03-25T05:55:53;4.10;99.90
34829;DHT22;21042;47.620;12.188;2024-03-25T05:58:19;4.10;99.90
34829;DHT22;21042;47.620;12.188;2024-03-25T06:00:49;4.10;99.90
34829;DHT22;21042;47.620;12.188;2024-03-25T06:03:15;4.20;99.90
34829;DHT22;21042;47.620;12.188;2024-03-25T06:05:42;4.10;99.90
34829;DHT22;21042;47.620;12.188;2024-03-25T06:08:08;4.20;99.90
34829;DHT22;21042;47.620;12.188;2024-03-25T06:10:43;4.30;99.90
34829;DHT22;21042;47.620;12.188;2024-03-25T06:13:09;4.30;99.90
34829;DHT22;21042;47.620;12.188;2024-03-25T06:15:35;4.30;99.90
34829;DHT22;21042;47.620;12.188;2024-03-25T06:18:01;4.30;99.90
34829;DHT22;21042;47.620;12.188;2024-03-25T06:20:27;4.40;99.90
34829;DHT22;21042;47.620;12.188;2024-03-25T06:22:53;4.50;99.90
34829;DHT22;21042;47.620;12.188;2024-03-25T06:25:19;4.50;99.90
34829;DHT22;21042;47.620;12.188;2024-03-25T06:27:45;4.50;99.90
34829;DHT22;21042;47.620;12.188;2024-03-25T06:30:13;4.40;99.90
34829;DHT22;21042;47.620;12.188;2024-03-25T06:32:57;4.40;99.90
34829;DHT22;21042;47.620;12.188;2024-03-25T06:35:44;4.50;99.90
34829;DHT22;21042;47.620;12.188;2024-03-25T06:38:13;4.50;99.90
34829;DHT22;21042;47.620;12.188;2024-03-25T06:40:39;4.60;99.90
34829;DHT22;21042;47.620;12.188;2024-03-25T06:43:05;4.70;99.90
34829;DHT22;21042;47.620;12.188;2024-03-25T06:45:31;4.70;99.90
34829;DHT22;21042;47.620;12.188;2024-03-25T06:47:57;4.80;99.90
34829;DHT22;21042;47.620;12.188;2024-03-25T06:50:24;4.90;99.90
34829;DHT22;21042;47.620;12.188;2024-03-25T06:52:50;4.90;99.90
34829;DHT22;21042;47.620;12.188;2024-03-25T06:55:16;4.80;99.90
34829;DHT22;21042;47.620;12.188;2024-03-25T06:57:42;4.80;99.90
34829;DHT22;21042;47.620;12.188;2024-03-25T07:00:08;4.70;99.90
34829;DHT22;21042;47.620;12.188;2024-03-25T07:02:41;4.60;99.90
34829;DHT22;21042;47.620;12.188;2024-03-25T07:05:08;4.60;99.90
34829;DHT22;21042;47.620;12.188;2024-03-25T07:07:34;4.60;99.90
34829;DHT22;21042;47.620;12.188;2024-03-25T07:10:00;4.60;99.90
34829;DHT22;21042;47.620;12.188;2024-03-25T07:12:26;4.50;99.90
34829;DHT22;21042;47.620;12.188;2024-03-25T07:14:52;4.70;99.90
34829;DHT22;21042;47.620;12.188;2024-03-25T07:17:18;4.90;99.90
34829;DHT22;21042;47.620;12.188;2024-03-25T07:19:44;5.00;99.90
34829;DHT22;21042;47.620;12.188;2024-03-25T07:22:10;5.20;99.90
34829;DHT22;21042;47.620;12.188;2024-03-25T07:24:36;5.40;99.90
34829;DHT22;21042;47.620;12.188;2024-03-25T07:27:02;5.50;99.90
34829;DHT22;21042;47.620;12.188;2024-03-25T07:29:28;5.70;99.90
34829;DHT22;21042;47.620;12.188;2024-03-25T07:31:54;5.80;99.90
34829;DHT22;21042;47.620;12.188;2024-03-25T07:34:20;6.00;99.90
34829;DHT22;21042;47.620;12.188;2024-03-25T07:36:46;6.10;99.90
34829;DHT22;21042;47.620;12.188;2024-03-25T07:39:14;6.20;99.90
34829;DHT22;21042;47.620;12.188;2024-03-25T07:41:40;6.10;99.90
34829;DHT22;21042;47.620;12.188;2024-03-25T07:44:06;6.20;99.90
34829;DHT22;21042;47.620;12.188;2024-03-25T07:46:32;6.30;99.90
34829;DHT22;21042;47.620;12.188;2024-03-25T07:48:57;6.40;99.90
34829;DHT22;21042;47.620;12.188;2024-03-25T07:51:24;6.60;99.90
34829;DHT22;21042;47.620;12.188;2024-03-25T07:53:50;6.70;99.90
34829;DHT22;21042;47.620;12.188;2024-03-25T07:56:16;6.70;99.90
34829;DHT22;21042;47.620;12.188;2024-03-25T07:58:42;6.70;99.90
34829;DHT22;21042;47.620;12.188;2024-03-25T08:01:08;6.70;99.90
34829;DHT22;21042;47.620;12.188;2024-03-25T08:03:34;6.70;99.90
34829;DHT22;21042;47.620;12.188;2024-03-25T08:06:00;6.90;99.90
34829;DHT22;21042;47.620;12.188;2024-03-25T08:08:26;7.00;99.90
34829;DHT22;21042;47.620;12.188;2024-03-25T08:10:51;7.10;99.90
34829;DHT22;21042;47.620;12.188;2024-03-25T08:13:21;7.10;99.90
34829;DHT22;21042;47.620;12.188;2024-03-25T08:15:47;7.10;99.90
34829;DHT22;21042;47.620;12.188;2024-03-25T08:18:13;7.20;99.90
34829;DHT22;21042;47.620;12.188;2024-03-25T08:20:39;7.30;99.90
34829;DHT22;21042;47.620;12.188;2024-03-25T08:23:05;7.40;99.90
34829;DHT22;21042;47.620;12.188;2024-03-25T08:25:32;7.50;99.90
34829;DHT22;21042;47.620;12.188;2024-03-25T08:27:58;7.60;99.90
34829;DHT22;21042;47.620;12.188;2024-03-25T08:30:24;7.80;99.90
34829;DHT22;21042;47.620;12.188;2024-03-25T08:32:51;7.90;99.90
34829;DHT22;21042;47.620;12.188;2024-03-25T08:35:17;8.10;99.90
34829;DHT22;21042;47.620;12.188;2024-03-25T08:37:43;8.30;99.90
34829;DHT22;21042;47.620;12.188;2024-03-25T08:40:09;8.40;99.90
34829;DHT22;21042;47.620;12.188;2024-03-25T08:42:35;8.50;99.90
34829;DHT22;21042;47.620;12.188;2024-03-25T08:45:01;8.70;99.90
34829;DHT22;21042;47.620;12.188;2024-03-25T08:47:27;9.00;99.90
34829;DHT22;21042;47.620;12.188;2024-03-25T08:49:53;9.20;99.90
34829;DHT22;21042;47.620;12.188;2024-03-25T08:52:18;9.20;99.90
34829;DHT22;21042;47.620;12.188;2024-03-25T08:54:44;9.50;99.90
34829;DHT22;21042;47.620;12.188;2024-03-25T08:57:10;9.70;99.90
34829;DHT22;21042;47.620;12.188;2024-03-25T08:59:36;10.00;99.90
34829;DHT22;21042;47.620;12.188;2024-03-25T09:02:02;10.30;99.90
34829;DHT22;21042;47.620;12.188;2024-03-25T09:04:28;10.40;99.90
34829;DHT22;21042;47.620;12.188;2024-03-25T09:06:53;10.70;99.90
34829;DHT22;21042;47.620;12.188;2024-03-25T09:09:19;10.80;99.90
34829;DHT22;21042;47.620;12.188;2024-03-25T09:12:04;10.80;98.90
34829;DHT22;21042;47.620;12.188;2024-03-25T09:14:30;10.40;98.50
34829;DHT22;21042;47.620;12.188;2024-03-25T09:16:55;10.00;99.20
34829;DHT22;21042;47.620;12.188;2024-03-25T09:19:21;9.60;99.70
34829;DHT22;21042;47.620;12.188;2024-03-25T09:21:47;9.50;99.90
34829;DHT22;21042;47.620;12.188;2024-03-25T09:24:13;9.40;99.90
34829;DHT22;21042;47.620;12.188;2024-03-25T09:26:39;9.40;99.60
34829;DHT22;21042;47.620;12.188;2024-03-25T09:29:05;9.30;98.40
34829;DHT22;21042;47.620;12.188;2024-03-25T09:35:30;9.70;98.60
34829;DHT22;21042;47.620;12.188;2024-03-25T09:37:56;9.60;96.70
34829;DHT22;21042;47.620;12.188;2024-03-25T09:44:24;10.00;96.90
34829;DHT22;21042;47.620;12.188;2024-03-25T09:46:51;9.90;95.50
34829;DHT22;21042;47.620;12.188;2024-03-25T09:49:17;9.60;95.50
34829;DHT22;21042;47.620;12.188;2024-03-25T09:51:43;9.50;95.70
34829;DHT22;21042;47.620;12.188;2024-03-25T09:54:09;9.50;96.70
34829;DHT22;21042;47.620;12.188;2024-03-25T09:56:37;9.60;96.90
34829;DHT22;21042;47.620;12.188;2024-03-25T09:59:04;9.60;95.40
34829;DHT22;21042;47.620;12.188;2024-03-25T10:01:29;9.70;95.60
34829;DHT22;21042;47.620;12.188;2024-03-25T10:03:55;10.00;94.70
34829;DHT22;21042;47.620;12.188;2024-03-25T10:06:21;10.50;94.30
34829;DHT22;21042;47.620;12.188;2024-03-25T10:08:47;10.80;92.40
34829;DHT22;21042;47.620;12.188;2024-03-25T10:11:13;10.90;91.20
34829;DHT22;21042;47.620;12.188;2024-03-25T10:13:40;11.00;91.80
34829;DHT22;21042;47.620;12.188;2024-03-25T10:16:07;11.20;92.60
34829;DHT22;21042;47.620;12.188;2024-03-25T10:18:33;11.20;90.90
34829;DHT22;21042;47.620;12.188;2024-03-25T10:20:59;11.00;88.10
34829;DHT22;21042;47.620;12.188;2024-03-25T10:23:25;11.20;90.10
34829;DHT22;21042;47.620;12.188;2024-03-25T10:25:53;11.40;90.00
34829;DHT22;21042;47.620;12.188;2024-03-25T10:28:19;11.70;91.20
34829;DHT22;21042;47.620;12.188;2024-03-25T10:30:45;11.80;89.20
34829;DHT22;21042;47.620;12.188;2024-03-25T10:33:11;12.10;88.30
34829;DHT22;21042;47.620;12.188;2024-03-25T10:35:38;12.30;90.60
34829;DHT22;21042;47.620;12.188;2024-03-25T10:38:10;12.40;88.20
34829;DHT22;21042;47.620;12.188;2024-03-25T10:40:40;12.30;86.30
34829;DHT22;21042;47.620;12.188;2024-03-25T10:45:37;12.70;85.20
34829;DHT22;21042;47.620;12.188;2024-03-25T10:48:19;12.80;84.80
34829;DHT22;21042;47.620;12.188;2024-03-25T10:50:46;12.70;79.70
34829;DHT22;21042;47.620;12.188;2024-03-25T10:53:14;12.50;80.30
34829;DHT22;21042;47.620;12.188;2024-03-25T10:55:40;12.60;84.20
34829;DHT22;21042;47.620;12.188;2024-03-25T10:58:07;12.30;80.00
34829;DHT22;21042;47.620;12.188;2024-03-25T11:00:34;12.20;81.70
34829;DHT22;21042;47.620;12.188;2024-03-25T11:03:01;12.30;79.50
34829;DHT22;21042;47.620;12.188;2024-03-25T11:05:27;12.40;78.80
34829;DHT22;21042;47.620;12.188;2024-03-25T11:07:53;12.50;78.40
34829;DHT22;21042;47.620;12.188;2024-03-25T11:10:19;12.50;77.90
34829;DHT22;21042;47.620;12.188;2024-03-25T11:12:54;12.30;77.70
34829;DHT22;21042;47.620;12.188;2024-03-25T11:15:20;12.20;79.00
34829;DHT22;21042;47.620;12.188;2024-03-25T11:17:50;12.20;77.20
34829;DHT22;21042;47.620;12.188;2024-03-25T11:20:17;12.30;77.30
34829;DHT22;21042;47.620;12.188;2024-03-25T11:22:52;12.50;77.80
34829;DHT22;21042;47.620;12.188;2024-03-25T11:25:20;12.30;78.60
34829;DHT22;21042;47.620;12.188;2024-03-25T11:27:47;12.30;77.70
34829;DHT22;21042;47.620;12.188;2024-03-25T11:30:16;12.40;78.70
34829;DHT22;21042;47.620;12.188;2024-03-25T11:32:52;12.40;77.00
34829;DHT22;21042;47.620;12.188;2024-03-25T11:35:18;12.40;76.80
34829;DHT22;21042;47.620;12.188;2024-03-25T11:37:44;12.30;76.90
34829;DHT22;21042;47.620;12.188;2024-03-25T11:40:11;11.50;72.50
34829;DHT22;21042;47.620;12.188;2024-03-25T11:42:39;11.50;74.40
34829;DHT22;21042;47.620;12.188;2024-03-25T11:45:06;11.40;71.70
34829;DHT22;21042;47.620;12.188;2024-03-25T11:47:33;11.70;75.50
34829;DHT22;21042;47.620;12.188;2024-03-25T11:49:59;11.90;72.10
34829;DHT22;21042;47.620;12.188;2024-03-25T11:52:30;12.10;72.00
34829;DHT22;21042;47.620;12.188;2024-03-25T11:54:56;12.20;72.90
34829;DHT22;21042;47.620;12.188;2024-03-25T11:57:22;12.30;72.60
34829;DHT22;21042;47.620;12.188;2024-03-25T11:59:48;12.40;73.10
34829;DHT22;21042;47.620;12.188;2024-03-25T12:02:18;12.40;74.50
34829;DHT22;21042;47.620;12.188;2024-03-25T12:04:44;12.50;71.40
34829;DHT22;21042;47.620;12.188;2024-03-25T12:07:14;12.40;73.10
34829;DHT22;21042;47.620;12.188;2024-03-25T12:09:40;12.10;68.60
34829;DHT22;21042;47.620;12.188;2024-03-25T12:12:25;12.00;68.20
34829;DHT22;21042;47.620;12.188;2024-03-25T12:14:53;12.10;71.60
34829;DHT22;21042;47.620;12.188;2024-03-25T12:17:21;12.20;68.20
34829;DHT22;21042;47.620;12.188;2024-03-25T12:20:04;12.20;71.30
34829;DHT22;21042;47.620;12.188;2024-03-25T12:22:31;12.30;69.40
34829;DHT22;21042;47.620;12.188;2024-03-25T12:25:00;12.00;67.20
34829;DHT22;21042;47.620;12.188;2024-03-25T12:27:27;12.00;65.90
34829;DHT22;21042;47.620;12.188;2024-03-25T12:30:02;12.00;70.40
34829;DHT22;21042;47.620;12.188;2024-03-25T12:32:42;12.20;71.70
34829;DHT22;21042;47.620;12.188;2024-03-25T12:35:09;12.40;67.50
34829;DHT22;21042;47.620;12.188;2024-03-25T12:37:38;12.30;65.30
34829;DHT22;21042;47.620;12.188;2024-03-25T12:40:06;12.50;66.50
34829;DHT22;21042;47.620;12.188;2024-03-25T12:42:33;12.30;65.80
34829;DHT22;21042;47.620;12.188;2024-03-25T12:44:59;12.10;65.40
34829;DHT22;21042;47.620;12.188;2024-03-25T12:47:25;12.30;68.50
34829;DHT22;21042;47.620;12.188;2024-03-25T12:49:51;12.30;64.00
34829;DHT22;21042;47.620;12.188;2024-03-25T12:52:17;12.50;70.80
34829;DHT22;21042;47.620;12.188;2024-03-25T12:54:43;12.70;71.00
34829;DHT22;21042;47.620;12.188;2024-03-25T12:57:11;12.80;70.30
34829;DHT22;21042;47.620;12.188;2024-03-25T12:59:37;12.90;66.40
34829;DHT22;21042;47.620;12.188;2024-03-25T13:02:02;13.10;70.60
34829;DHT22;21042;47.620;12.188;2024-03-25T13:04:28;13.20;69.00
34829;DHT22;21042;47.620;12.188;2024-03-25T13:06:54;13.20;64.60
34829;DHT22;21042;47.620;12.188;2024-03-25T13:09:21;13.00;66.80
34829;DHT22;21042;47.620;12.188;2024-03-25T13:11:47;12.80;65.00
34829;DHT22;21042;47.620;12.188;2024-03-25T13:14:13;12.70;67.60
34829;DHT22;21042;47.620;12.188;2024-03-25T13:16:41;12.90;65.10
34829;DHT22;21042;47.620;12.188;2024-03-25T13:19:07;12.80;67.70
34829;DHT22;21042;47.620;12.188;2024-03-25T13:21:33;12.70;67.80
34829;DHT22;21042;47.620;12.188;2024-03-25T13:23:59;12.80;68.00
34829;DHT22;21042;47.620;12.188;2024-03-25T13:26:25;12.70;65.90
34829;DHT22;21042;47.620;12.188;2024-03-25T13:28:52;12.70;68.20
34829;DHT22;21042;47.620;12.188;2024-03-25T13:31:18;12.50;67.80
34829;DHT22;21042;47.620;12.188;2024-03-25T13:33:44;12.60;67.30
34829;DHT22;21042;47.620;12.188;2024-03-25T13:36:10;12.60;67.40
34829;DHT22;21042;47.620;12.188;2024-03-25T13:38:35;12.70;67.70
34829;DHT22;21042;47.620;12.188;2024-03-25T13:41:02;12.80;69.20
34829;DHT22;21042;47.620;12.188;2024-03-25T13:43:28;12.90;67.90
34829;DHT22;21042;47.620;12.188;2024-03-25T13:45:54;12.90;66.80
34829;DHT22;21042;47.620;12.188;2024-03-25T13:48:20;12.80;66.70
34829;DHT22;21042;47.620;12.188;2024-03-25T13:50:46;12.70;66.70
34829;DHT22;21042;47.620;12.188;2024-03-25T13:53:13;12.90;67.80
34829;DHT22;21042;47.620;12.188;2024-03-25T13:55:39;12.90;66.90
34829;DHT22;21042;47.620;12.188;2024-03-25T13:58:05;12.90;64.70
34829;DHT22;21042;47.620;12.188;2024-03-25T14:00:32;12.90;66.10
34829;DHT22;21042;47.620;12.188;2024-03-25T14:02:59;13.00;69.20
34829;DHT22;21042;47.620;12.188;2024-03-25T14:05:25;13.00;68.40
34829;DHT22;21042;47.620;12.188;2024-03-25T14:07:52;13.10;66.80
34829;DHT22;21042;47.620;12.188;2024-03-25T14:10:17;13.10;64.60
34829;DHT22;21042;47.620;12.188;2024-03-25T14:12:43;13.10;64.80
34829;DHT22;21042;47.620;12.188;2024-03-25T14:15:09;13.00;65.80
34829;DHT22;21042;47.620;12.188;2024-03-25T14:17:35;12.90;65.60
34829;DHT22;21042;47.620;12.188;2024-03-25T14:20:01;12.90;68.00
34829;DHT22;21042;47.620;12.188;2024-03-25T14:22:27;12.80;69.60
34829;DHT22;21042;47.620;12.188;2024-03-25T14:24:53;12.70;66.00
34829;DHT22;21042;47.620;12.188;2024-03-25T14:27:26;12.70;67.00
34829;DHT22;21042;47.620;12.188;2024-03-25T14:29:52;12.60;67.50
34829;DHT22;21042;47.620;12.188;2024-03-25T14:32:22;12.60;68.80
34829;DHT22;21042;47.620;12.188;2024-03-25T14:34:48;12.70;71.50
34829;DHT22;21042;47.620;12.188;2024-03-25T14:37:15;12.70;68.80
34829;DHT22;21042;47.620;12.188;2024-03-25T14:39:41;12.70;70.60
34829;DHT22;21042;47.620;12.188;2024-03-25T14:42:09;12.70;71.90
34829;DHT22;21042;47.620;12.188;2024-03-25T14:44:38;12.70;66.00
34829;DHT22;21042;47.620;12.188;2024-03-25T14:47:04;12.80;69.30
34829;DHT22;21042;47.620;12.188;2024-03-25T14:49:30;12.90;67.90
34829;DHT22;21042;47.620;12.188;2024-03-25T14:51:56;12.90;66.50
34829;DHT22;21042;47.620;12.188;2024-03-25T14:54:22;13.00;66.70
34829;DHT22;21042;47.620;12.188;2024-03-25T14:56:48;13.10;68.50
34829;DHT22;21042;47.620;12.188;2024-03-25T14:59:14;13.10;67.10
34829;DHT22;21042;47.620;12.188;2024-03-25T15:01:40;13.00;68.80
34829;DHT22;21042;47.620;12.188;2024-03-25T15:04:06;13.00;67.40
34829;DHT22;21042;47.620;12.188;2024-03-25T15:06:33;12.90;66.80
34829;DHT22;21042;47.620;12.188;2024-03-25T15:08:59;12.90;67.80
34829;DHT22;21042;47.620;12.188;2024-03-25T15:11:26;12.90;68.70
34829;DHT22;21042;47.620;12.188;2024-03-25T15:13:52;12.80;69.30
34829;DHT22;21042;47.620;12.188;2024-03-25T15:16:18;12.80;68.10
34829;DHT22;21042;47.620;12.188;2024-03-25T15:18:44;12.90;67.20
34829;DHT22;21042;47.620;12.188;2024-03-25T15:21:10;13.00;68.70
34829;DHT22;21042;47.620;12.188;2024-03-25T15:23:36;13.10;67.60
34829;DHT22;21042;47.620;12.188;2024-03-25T15:26:02;13.20;68.60
34829;DHT22;21042;47.620;12.188;2024-03-25T15:28:28;13.20;66.30
34829;DHT22;21042;47.620;12.188;2024-03-25T15:30:57;13.30;68.40
34829;DHT22;21042;47.620;12.188;2024-03-25T15:33:23;13.20;67.60